sensor_id;sensor_type;location;lat;lon;timestamp;pressure;altitude;pressure_sealevel;temperature;humidity
23166;BME280;11751;42.700;24.170;2023-02-02T00:01:33;93947.38;;;3.09;88.00
23166;BME280;11751;42.700;24.170;2023-02-02T00:03:59;93952.72;;;3.01;88.80
23166;BME280;11751;42.700;24.170;2023-02-02T00:06:26;93934.81;;;3.08;89.42
23166;BME280;11751;42.700;24.170;2023-02-02T00:08:52;93924.72;;;3.16;89.66
23166;BME280;11751;42.700;24.170;2023-02-02T00:11:18;93929.69;;;3.23;90.15
23166;BME280;11751;42.700;24.170;2023-02-02T00:13:44;93916.91;;;3.14;90.02
23166;BME280;11751;42.700;24.170;2023-02-02T00:18:58;93911.16;;;3.12;90.22
23166;BME280;11751;42.700;24.170;2023-02-02T00:21:24;93916.16;;;2.79;92.72
23166;BME280;11751;42.700;24.170;2023-02-02T00:23:50;93924.84;;;2.94;92.51
23166;BME280;11751;42.700;24.170;2023-02-02T00:26:16;93931.09;;;3.00;92.32
23166;BME280;11751;42.700;24.170;2023-02-02T00:28:42;93925.00;;;3.12;91.75
23166;BME280;11751;42.700;24.170;2023-02-02T00:31:07;93925.44;;;3.16;91.48
23166;BME280;11751;42.700;24.170;2023-02-02T00:33:33;93929.47;;;3.15;91.97
23166;BME280;11751;42.700;24.170;2023-02-02T00:35:58;93947.91;;;3.02;92.99
23166;BME280;11751;42.700;24.170;2023-02-02T00:38:24;93937.81;;;3.10;92.86
23166;BME280;11751;42.700;24.170;2023-02-02T00:40:49;93935.81;;;3.10;92.42
23166;BME280;11751;42.700;24.170;2023-02-02T00:43:14;93924.53;;;3.03;92.43
23166;BME280;11751;42.700;24.170;2023-02-02T00:45:40;93924.75;;;3.10;91.52
23166;BME280;11751;42.700;24.170;2023-02-02T00:48:06;93928.00;;;3.09;91.67
23166;BME280;11751;42.700;24.170;2023-02-02T00:50:32;93919.50;;;3.07;91.13
23166;BME280;11751;42.700;24.170;2023-02-02T00:52:57;93920.75;;;3.06;91.05
23166;BME280;11751;42.700;24.170;2023-02-02T00:55:25;93910.06;;;2.86;91.27
23166;BME280;11751;42.700;24.170;2023-02-02T00:57:52;93909.16;;;2.67;90.90
23166;BME280;11751;42.700;24.170;2023-02-02T01:00:20;93910.00;;;2.51;89.55
23166;BME280;11751;42.700;24.170;2023-02-02T01:02:48;93910.00;;;2.51;89.87
23166;BME280;11751;42.700;24.170;2023-02-02T01:05:13;93919.06;;;2.46;89.73
23166;BME280;11751;42.700;24.170;2023-02-02T01:07:39;93908.47;;;2.50;89.11
23166;BME280;11751;42.700;24.170;2023-02-02T01:10:06;93908.72;;;2.52;88.49
23166;BME280;11751;42.700;24.170;2023-02-02T01:12:32;93902.75;;;2.43;88.67
23166;BME280;11751;42.700;24.170;2023-02-02T01:14:58;93902.56;;;2.30;89.60
23166;BME280;11751;42.700;24.170;2023-02-02T01:17:23;93902.59;;;2.19;90.08
23166;BME280;11751;42.700;24.170;2023-02-02T01:19:49;93891.84;;;2.10;89.96
23166;BME280;11751;42.700;24.170;2023-02-02T01:22:14;93885.75;;;2.22;89.46
23166;BME280;11751;42.700;24.170;2023-02-02T01:24:39;93890.56;;;2.16;89.63
23166;BME280;11751;42.700;24.170;2023-02-02T01:27:05;93873.31;;;1.94;90.25
23166;BME280;11751;42.700;24.170;2023-02-02T01:29:30;93875.56;;;1.95;90.28
23166;BME280;11751;42.700;24.170;2023-02-02T01:31:56;93877.59;;;2.00;89.78
23166;BME280;11751;42.700;24.170;2023-02-02T01:34:22;93889.59;;;2.08;89.49
23166;BME280;11751;42.700;24.170;2023-02-02T01:36:47;93878.53;;;2.14;88.76
23166;BME280;11751;42.700;24.170;2023-02-02T01:39:13;93901.38;;;2.09;88.56
23166;BME280;11751;42.700;24.170;2023-02-02T01:41:39;93892.13;;;2.01;88.52
23166;BME280;11751;42.700;24.170;2023-02-02T01:44:48;93890.88;;;2.02;88.35
23166;BME280;11751;42.700;24.170;2023-02-02T01:46:51;93893.06;;;2.14;87.63
23166;BME280;11751;42.700;24.170;2023-02-02T01:49:18;93890.09;;;2.01;88.08
23166;BME280;11751;42.700;24.170;2023-02-02T01:51:53;93888.31;;;2.15;87.29
23166;BME280;11751;42.700;24.170;2023-02-02T01:54:24;93894.34;;;2.08;87.31
23166;BME280;11751;42.700;24.170;2023-02-02T01:56:57;93897.09;;;2.13;87.06
23166;BME280;11751;42.700;24.170;2023-02-02T01:59:25;93891.84;;;2.10;86.99
23166;BME280;11751;42.700;24.170;2023-02-02T02:01:51;93881.75;;;2.18;86.58
23166;BME280;11751;42.700;24.170;2023-02-02T02:04:19;93879.28;;;2.09;86.80
23166;BME280;11751;42.700;24.170;2023-02-02T02:06:46;93884.25;;;2.21;86.47
23166;BME280;11751;42.700;24.170;2023-02-02T02:09:12;93878.25;;;2.17;86.43
23166;BME280;11751;42.700;24.170;2023-02-02T02:11:38;93879.06;;;2.01;87.36
23166;BME280;11751;42.700;24.170;2023-02-02T02:14:09;93881.28;;;2.14;87.15
23166;BME280;11751;42.700;24.170;2023-02-02T02:34:03;93883.59;;;1.93;88.43
23166;BME280;11751;42.700;24.170;2023-02-02T02:36:33;93893.16;;;1.81;88.41
23166;BME280;11751;42.700;24.170;2023-02-02T02:41:48;93888.19;;;1.74;88.98
23166;BME280;11751;42.700;24.170;2023-02-02T02:44:16;93886.69;;;1.68;88.79
23166;BME280;11751;42.700;24.170;2023-02-02T02:46:43;93883.69;;;1.66;89.18
23166;BME280;11751;42.700;24.170;2023-02-02T02:49:10;93875.44;;;1.61;89.29
23166;BME280;11751;42.700;24.170;2023-02-02T02:51:49;93886.47;;;1.61;89.65
23166;BME280;11751;42.700;24.170;2023-02-02T02:54:18;93872.41;;;1.59;89.93
23166;BME280;11751;42.700;24.170;2023-02-02T03:02:18;93880.66;;;1.75;88.92
23166;BME280;11751;42.700;24.170;2023-02-02T03:05:10;93885.16;;;1.67;88.88
23166;BME280;11751;42.700;24.170;2023-02-02T03:07:43;93886.19;;;1.69;89.00
23166;BME280;11751;42.700;24.170;2023-02-02T03:10:13;93894.69;;;1.82;88.58
23166;BME280;11751;42.700;24.170;2023-02-02T03:12:49;93886.16;;;1.80;88.51
23166;BME280;11751;42.700;24.170;2023-02-02T03:15:16;93889.41;;;1.79;88.60
23166;BME280;11751;42.700;24.170;2023-02-02T03:17:42;93883.16;;;1.73;88.62
23166;BME280;11751;42.700;24.170;2023-02-02T03:20:09;93880.66;;;1.69;88.79
23166;BME280;11751;42.700;24.170;2023-02-02T03:22:35;93887.19;;;1.67;89.02
23166;BME280;11751;42.700;24.170;2023-02-02T03:25:00;93886.16;;;1.80;88.36
23166;BME280;11751;42.700;24.170;2023-02-02T03:27:26;93881.66;;;1.77;88.53
23166;BME280;11751;42.700;24.170;2023-02-02T03:29:52;93871.13;;;1.76;88.37
23166;BME280;11751;42.700;24.170;2023-02-02T03:32:17;93877.09;;;1.85;88.56
23166;BME280;11751;42.700;24.170;2023-02-02T03:34:43;93881.13;;;1.84;87.94
23166;BME280;11751;42.700;24.170;2023-02-02T03:37:08;93888.66;;;1.89;87.98
23166;BME280;11751;42.700;24.170;2023-02-02T03:39:34;93886.41;;;1.82;88.08
23166;BME280;11751;42.700;24.170;2023-02-02T03:41:59;93883.63;;;1.82;87.83
23166;BME280;11751;42.700;24.170;2023-02-02T03:44:24;93889.66;;;1.86;87.41
23166;BME280;11751;42.700;24.170;2023-02-02T03:46:53;93883.41;;;1.80;87.37
23166;BME280;11751;42.700;24.170;2023-02-02T03:49:19;93882.47;;;1.56;88.27
23166;BME280;11751;42.700;24.170;2023-02-02T03:51:44;93880.44;;;1.62;88.35
23166;BME280;11751;42.700;24.170;2023-02-02T03:54:09;93888.97;;;1.64;88.17
23166;BME280;11751;42.700;24.170;2023-02-02T03:56:35;93890.69;;;1.62;88.24
23166;BME280;11751;42.700;24.170;2023-02-02T03:59:00;93877.16;;;1.64;87.81
23166;BME280;11751;42.700;24.170;2023-02-02T04:01:27;93884.69;;;1.58;88.27
23166;BME280;11751;42.700;24.170;2023-02-02T04:03:54;93891.00;;;1.42;88.88
23166;BME280;11751;42.700;24.170;2023-02-02T04:06:20;93889.69;;;1.65;88.03
23166;BME280;11751;42.700;24.170;2023-02-02T04:08:45;93883.69;;;1.61;87.75
23166;BME280;11751;42.700;24.170;2023-02-02T04:11:11;93892.25;;;1.52;88.21
23166;BME280;11751;42.700;24.170;2023-02-02T04:13:36;93886.47;;;1.55;88.16
23166;BME280;11751;42.700;24.170;2023-02-02T04:16:02;93893.25;;;1.49;88.04
23166;BME280;11751;42.700;24.170;2023-02-02T04:18:28;93894.25;;;1.46;88.17
23166;BME280;11751;42.700;24.170;2023-02-02T04:21:00;93894.50;;;1.26;89.21
23166;BME280;11751;42.700;24.170;2023-02-02T04:23:27;93893.25;;;1.27;89.50
23166;BME280;11751;42.700;24.170;2023-02-02T04:25:53;93888.75;;;1.24;89.50
23166;BME280;11751;42.700;24.170;2023-02-02T04:28:18;93900.78;;;1.21;89.84
23166;BME280;11751;42.700;24.170;2023-02-02T04:30:44;93899.78;;;1.24;89.70
23166;BME280;11751;42.700;24.170;2023-02-02T04:33:09;93896.53;;;1.25;89.60
23166;BME280;11751;42.700;24.170;2023-02-02T04:35:35;93905.78;;;1.28;89.06
23166;BME280;11751;42.700;24.170;2023-02-02T04:38:00;93900.53;;;1.13;90.00
23166;BME280;11751;42.700;24.170;2023-02-02T04:40:26;93909.31;;;1.12;90.21
23166;BME280;11751;42.700;24.170;2023-02-02T04:42:51;93914.81;;;1.23;89.99
23166;BME280;11751;42.700;24.170;2023-02-02T04:45:17;93917.34;;;1.32;89.72
23166;BME280;11751;42.700;24.170;2023-02-02T04:47:42;93916.31;;;1.24;89.45
23166;BME280;11751;42.700;24.170;2023-02-02T04:50:08;93923.09;;;1.17;89.80
23166;BME280;11751;42.700;24.170;2023-02-02T04:52:34;93921.84;;;1.35;89.25
23166;BME280;11751;42.700;24.170;2023-02-02T04:54:59;93931.88;;;1.38;88.99
23166;BME280;11751;42.700;24.170;2023-02-02T04:57:25;93925.84;;;1.34;89.15
23166;BME280;11751;42.700;24.170;2023-02-02T04:59:51;93921.56;;;1.33;89.39
23166;BME280;11751;42.700;24.170;2023-02-02T05:02:16;93935.13;;;1.25;89.64
23166;BME280;11751;42.700;24.170;2023-02-02T05:04:42;93932.13;;;1.23;89.94
23166;BME280;11751;42.700;24.170;2023-02-02T05:07:07;93946.91;;;1.37;89.22
23166;BME280;11751;42.700;24.170;2023-02-02T05:09:33;93942.91;;;1.49;88.70
23166;BME280;11751;42.700;24.170;2023-02-02T05:11:58;93946.66;;;1.46;88.47
23166;BME280;11751;42.700;24.170;2023-02-02T05:14:24;93945.16;;;1.34;89.07
23166;BME280;11751;42.700;24.170;2023-02-02T05:16:49;93932.88;;;1.46;88.54
23166;BME280;11751;42.700;24.170;2023-02-02T05:19:14;93932.13;;;1.45;88.15
23166;BME280;11751;42.700;24.170;2023-02-02T05:21:42;93941.13;;;1.57;87.71
23166;BME280;11751;42.700;24.170;2023-02-02T05:24:09;93946.41;;;1.60;87.93
23166;BME280;11751;42.700;24.170;2023-02-02T05:26:35;93941.41;;;1.59;87.80
23166;BME280;11751;42.700;24.170;2023-02-02T05:29:00;93953.69;;;1.58;87.59
23166;BME280;11751;42.700;24.170;2023-02-02T05:31:26;93948.69;;;1.51;88.00
23166;BME280;11751;42.700;24.170;2023-02-02T05:33:52;93946.66;;;1.51;88.10
23166;BME280;11751;42.700;24.170;2023-02-02T05:36:17;93945.91;;;1.51;88.26
23166;BME280;11751;42.700;24.170;2023-02-02T05:38:43;93944.88;;;1.65;87.88
23166;BME280;11751;42.700;24.170;2023-02-02T05:41:08;93949.16;;;1.66;87.70
23166;BME280;11751;42.700;24.170;2023-02-02T05:43:33;93948.41;;;1.54;87.63
23166;BME280;11751;42.700;24.170;2023-02-02T05:45:59;93954.69;;;1.60;87.71
23166;BME280;11751;42.700;24.170;2023-02-02T05:48:25;93954.44;;;1.53;88.09
23166;BME280;11751;42.700;24.170;2023-02-02T05:53:27;93968.72;;;1.51;87.75
23166;BME280;11751;42.700;24.170;2023-02-02T05:55:53;93973.00;;;1.58;87.66
23166;BME280;11751;42.700;24.170;2023-02-02T05:58:18;93975.50;;;1.67;87.64
23166;BME280;11751;42.700;24.170;2023-02-02T06:00:43;93979.50;;;1.55;88.06
23166;BME280;11751;42.700;24.170;2023-02-02T06:03:09;93978.25;;;1.61;87.53
23166;BME280;11751;42.700;24.170;2023-02-02T06:05:37;93984.03;;;1.58;87.21
23166;BME280;11751;42.700;24.170;2023-02-02T06:08:02;93989.56;;;1.68;86.58
23166;BME280;11751;42.700;24.170;2023-02-02T06:10:28;93990.53;;;1.55;87.14
23166;BME280;11751;42.700;24.170;2023-02-02T06:12:55;93989.81;;;1.49;87.55
23166;BME280;11751;42.700;24.170;2023-02-02T06:15:21;93989.03;;;1.65;87.35
23166;BME280;11751;42.700;24.170;2023-02-02T06:17:46;93996.31;;;1.67;87.28
23166;BME280;11751;42.700;24.170;2023-02-02T06:20:12;93988.03;;;1.62;87.85
23166;BME280;11751;42.700;24.170;2023-02-02T06:22:37;94000.59;;;1.79;87.56
23166;BME280;11751;42.700;24.170;2023-02-02T06:25:03;93991.53;;;1.95;87.06
23166;BME280;11751;42.700;24.170;2023-02-02T06:27:30;94002.56;;;2.06;86.81
23166;BME280;11751;42.700;24.170;2023-02-02T06:29:55;93992.53;;;1.92;87.51
23166;BME280;11751;42.700;24.170;2023-02-02T06:32:21;93986.50;;;1.99;87.85
23166;BME280;11751;42.700;24.170;2023-02-02T06:34:46;94002.03;;;2.13;87.64
23166;BME280;11751;42.700;24.170;2023-02-02T06:37:11;93996.03;;;2.20;87.79
23166;BME280;11751;42.700;24.170;2023-02-02T06:39:37;93990.69;;;2.33;87.71
23166;BME280;11751;42.700;24.170;2023-02-02T06:42:02;93996.75;;;2.21;87.69
23166;BME280;11751;42.700;24.170;2023-02-02T06:44:28;94001.50;;;2.31;87.38
23166;BME280;11751;42.700;24.170;2023-02-02T06:46:53;93995.97;;;2.31;86.71
23166;BME280;11751;42.700;24.170;2023-02-02T06:49:19;93995.47;;;2.38;86.32
23166;BME280;11751;42.700;24.170;2023-02-02T06:51:46;94004.22;;;2.42;86.60
23166;BME280;11751;42.700;24.170;2023-02-02T06:54:12;94006.19;;;2.58;86.18
23166;BME280;11751;42.700;24.170;2023-02-02T06:56:37;93998.91;;;2.55;86.06
23166;BME280;11751;42.700;24.170;2023-02-02T06:59:03;93999.44;;;2.48;85.76
23166;BME280;11751;42.700;24.170;2023-02-02T07:01:29;94010.16;;;2.73;85.27
23166;BME280;11751;42.700;24.170;2023-02-02T07:03:54;93996.78;;;2.88;85.05
23166;BME280;11751;42.700;24.170;2023-02-02T07:06:22;94012.31;;;2.97;85.23
23166;BME280;11751;42.700;24.170;2023-02-02T07:08:48;94011.75;;;3.09;85.37
23166;BME280;11751;42.700;24.170;2023-02-02T07:11:15;94014.88;;;3.30;85.05
23166;BME280;11751;42.700;24.170;2023-02-02T07:13:44;94006.00;;;3.47;84.70
23166;BME280;11751;42.700;24.170;2023-02-02T07:16:10;94013.47;;;3.58;84.05
23166;BME280;11751;42.700;24.170;2023-02-02T07:18:42;94005.91;;;3.58;82.43
23166;BME280;11751;42.700;24.170;2023-02-02T07:21:15;94008.81;;;3.71;81.48
23166;BME280;11751;42.700;24.170;2023-02-02T07:23:40;94008.91;;;3.60;80.69
23166;BME280;11751;42.700;24.170;2023-02-02T07:26:08;94018.47;;;3.59;80.25
23166;BME280;11751;42.700;24.170;2023-02-02T07:28:35;94013.34;;;3.74;79.42
23166;BME280;11751;42.700;24.170;2023-02-02T07:31:20;94009.75;;;3.79;79.00
23166;BME280;11751;42.700;24.170;2023-02-02T07:33:46;94017.66;;;3.70;79.37
23166;BME280;11751;42.700;24.170;2023-02-02T07:36:14;94017.38;;;3.73;79.01
23166;BME280;11751;42.700;24.170;2023-02-02T07:38:46;94007.41;;;3.59;78.47
23166;BME280;11751;42.700;24.170;2023-02-02T07:41:13;93995.50;;;3.70;79.00
23166;BME280;11751;42.700;24.170;2023-02-02T07:43:39;94005.94;;;3.88;79.42
23166;BME280;11751;42.700;24.170;2023-02-02T07:46:05;94001.59;;;3.92;79.90
23166;BME280;11751;42.700;24.170;2023-02-02T07:48:33;94000.59;;;3.95;80.77
23166;BME280;11751;42.700;24.170;2023-02-02T07:51:03;93994.00;;;3.98;79.78
23166;BME280;11751;42.700;24.170;2023-02-02T07:53:29;93989.03;;;3.91;78.76
23166;BME280;11751;42.700;24.170;2023-02-02T07:56:11;93995.75;;;4.01;77.64
23166;BME280;11751;42.700;24.170;2023-02-02T07:58:36;93985.94;;;4.00;77.83
23166;BME280;11751;42.700;24.170;2023-02-02T08:01:06;93979.84;;;4.02;77.66
23166;BME280;11751;42.700;24.170;2023-02-02T08:03:33;93970.81;;;4.01;77.66
23166;BME280;11751;42.700;24.170;2023-02-02T08:05:59;93985.09;;;4.11;76.50
23166;BME280;11751;42.700;24.170;2023-02-02T08:08:25;93979.53;;;4.11;76.42
23166;BME280;11751;42.700;24.170;2023-02-02T08:10:52;93973.13;;;4.21;76.18
23166;BME280;11751;42.700;24.170;2023-02-02T08:13:18;93967.47;;;4.32;75.18
23166;BME280;11751;42.700;24.170;2023-02-02T08:15:43;93967.94;;;4.36;74.44
23166;BME280;11751;42.700;24.170;2023-02-02T08:18:09;93961.16;;;4.31;74.52
23166;BME280;11751;42.700;24.170;2023-02-02T08:20:34;93959.28;;;4.45;74.07
23166;BME280;11751;42.700;24.170;2023-02-02T08:23:00;93966.19;;;4.57;74.29
23166;BME280;11751;42.700;24.170;2023-02-02T08:25:25;93964.84;;;4.63;72.95
23166;BME280;11751;42.700;24.170;2023-02-02T08:27:54;93956.84;;;4.60;72.78
23166;BME280;11751;42.700;24.170;2023-02-02T08:30:22;93961.66;;;4.78;72.55
23166;BME280;11751;42.700;24.170;2023-02-02T08:32:47;93948.63;;;4.91;70.66
23166;BME280;11751;42.700;24.170;2023-02-02T08:35:13;93952.59;;;4.96;71.43
23166;BME280;11751;42.700;24.170;2023-02-02T08:37:38;93958.88;;;5.14;70.64
23166;BME280;11751;42.700;24.170;2023-02-02T08:40:04;93942.84;;;5.07;69.72
23166;BME280;11751;42.700;24.170;2023-02-02T08:42:30;93951.56;;;5.17;69.02
23166;BME280;11751;42.700;24.170;2023-02-02T08:44:55;93938.94;;;5.34;69.15
23166;BME280;11751;42.700;24.170;2023-02-02T08:47:20;93947.06;;;5.32;68.35
23166;BME280;11751;42.700;24.170;2023-02-02T08:49:46;93942.81;;;5.44;68.23
23166;BME280;11751;42.700;24.170;2023-02-02T08:52:11;93943.66;;;5.39;67.88
23166;BME280;11751;42.700;24.170;2023-02-02T08:54:36;93935.09;;;5.37;67.71
23166;BME280;11751;42.700;24.170;2023-02-02T08:57:02;93946.66;;;5.41;68.05
23166;BME280;11751;42.700;24.170;2023-02-02T08:59:27;93952.41;;;5.43;67.57
23166;BME280;11751;42.700;24.170;2023-02-02T09:01:53;93947.06;;;5.32;67.71
23166;BME280;11751;42.700;24.170;2023-02-02T09:04:18;93964.13;;;5.36;67.93
23166;BME280;11751;42.700;24.170;2023-02-02T09:06:44;93957.53;;;5.39;68.69
23166;BME280;11751;42.700;24.170;2023-02-02T09:09:13;93940.88;;;5.39;67.62
23166;BME280;11751;42.700;24.170;2023-02-02T09:11:39;93937.00;;;5.29;68.17
23166;BME280;11751;42.700;24.170;2023-02-02T09:14:05;93950.72;;;5.40;67.80
23166;BME280;11751;42.700;24.170;2023-02-02T09:16:32;93948.50;;;5.52;67.42
23166;BME280;11751;42.700;24.170;2023-02-02T09:18:58;93955.25;;;5.56;67.21
23166;BME280;11751;42.700;24.170;2023-02-02T09:21:23;93948.03;;;5.66;67.57
23166;BME280;11751;42.700;24.170;2023-02-02T09:23:50;93957.88;;;5.86;67.61
23166;BME280;11751;42.700;24.170;2023-02-02T09:26:25;93937.44;;;5.83;66.32
23166;BME280;11751;42.700;24.170;2023-02-02T09:28:53;93935.53;;;5.91;66.86
23166;BME280;11751;42.700;24.170;2023-02-02T09:31:19;93924.44;;;5.91;66.01
23166;BME280;11751;42.700;24.170;2023-02-02T09:33:45;93923.88;;;5.93;66.79
23166;BME280;11751;42.700;24.170;2023-02-02T09:36:13;93922.94;;;6.03;66.77
23166;BME280;11751;42.700;24.170;2023-02-02T09:38:40;93910.00;;;5.93;66.95
23166;BME280;11751;42.700;24.170;2023-02-02T09:52:11;93898.38;;;6.59;62.78
23166;BME280;11751;42.700;24.170;2023-02-02T09:54:45;93893.88;;;6.69;64.16
23166;BME280;11751;42.700;24.170;2023-02-02T09:57:19;93885.09;;;6.65;63.42
23166;BME280;11751;42.700;24.170;2023-02-02T09:59:48;93884.66;;;6.86;63.06
23166;BME280;11751;42.700;24.170;2023-02-02T10:04:48;93880.75;;;7.02;61.17
23166;BME280;11751;42.700;24.170;2023-02-02T10:07:18;93887.59;;;7.01;61.77
23166;BME280;11751;42.700;24.170;2023-02-02T10:09:54;93874.13;;;6.92;61.73
23166;BME280;11751;42.700;24.170;2023-02-02T10:12:49;93881.00;;;6.91;61.81
23166;BME280;11751;42.700;24.170;2023-02-02T10:20:35;93865.19;;;7.20;61.25
23166;BME280;11751;42.700;24.170;2023-02-02T10:23:34;93863.31;;;7.35;60.13
23166;BME280;11751;42.700;24.170;2023-02-02T10:26:19;93872.53;;;7.30;60.63
23166;BME280;11751;42.700;24.170;2023-02-02T10:34:37;93846.72;;;7.91;60.96
23166;BME280;11751;42.700;24.170;2023-02-02T10:40:33;93852.59;;;8.28;60.98
23166;BME280;11751;42.700;24.170;2023-02-02T10:46:02;93852.00;;;8.50;59.98
23166;BME280;11751;42.700;24.170;2023-02-02T10:48:33;93843.84;;;8.59;60.17
23166;BME280;11751;42.700;24.170;2023-02-02T10:51:22;93851.16;;;8.35;60.03
23166;BME280;11751;42.700;24.170;2023-02-02T10:53:53;93832.50;;;8.30;59.76
23166;BME280;11751;42.700;24.170;2023-02-02T10:56:34;93839.28;;;8.14;59.73
23166;BME280;11751;42.700;24.170;2023-02-02T10:59:14;93846.00;;;7.98;60.70
23166;BME280;11751;42.700;24.170;2023-02-02T11:01:40;93834.56;;;8.09;60.82
23166;BME280;11751;42.700;24.170;2023-02-02T11:04:08;93829.13;;;8.24;60.99
23166;BME280;11751;42.700;24.170;2023-02-02T11:06:52;93838.84;;;8.30;60.12
23166;BME280;11751;42.700;24.170;2023-02-02T11:09:31;93821.34;;;8.30;59.59
23166;BME280;11751;42.700;24.170;2023-02-02T11:12:14;93817.84;;;8.09;58.30
23166;BME280;11751;42.700;24.170;2023-02-02T11:15:03;93823.88;;;7.92;57.53
23166;BME280;11751;42.700;24.170;2023-02-02T11:17:29;93831.66;;;7.66;58.79
23166;BME280;11751;42.700;24.170;2023-02-02T11:19:55;93825.31;;;7.65;59.05
23166;BME280;11751;42.700;24.170;2023-02-02T11:22:28;93822.00;;;7.67;60.08
23166;BME280;11751;42.700;24.170;2023-02-02T11:24:56;93824.59;;;7.65;60.13
23166;BME280;11751;42.700;24.170;2023-02-02T11:27:33;93813.50;;;7.52;60.58
23166;BME280;11751;42.700;24.170;2023-02-02T11:30:23;93810.03;;;7.59;60.25
23166;BME280;11751;42.700;24.170;2023-02-02T11:32:51;93811.81;;;7.49;59.83
23166;BME280;11751;42.700;24.170;2023-02-02T11:35:21;93799.47;;;7.37;60.61
23166;BME280;11751;42.700;24.170;2023-02-02T11:38:08;93817.78;;;7.33;61.25
23166;BME280;11751;42.700;24.170;2023-02-02T11:40:41;93794.66;;;7.04;61.28
23166;BME280;11751;42.700;24.170;2023-02-02T11:43:36;93814.19;;;6.91;61.75
23166;BME280;11751;42.700;24.170;2023-02-02T11:51:24;93779.81;;;7.02;63.15
23166;BME280;11751;42.700;24.170;2023-02-02T11:56:30;93777.53;;;7.34;63.41
23166;BME280;11751;42.700;24.170;2023-02-02T11:58:57;93777.56;;;7.41;62.16
23166;BME280;11751;42.700;24.170;2023-02-02T12:01:37;93777.09;;;7.50;61.75
23166;BME280;11751;42.700;24.170;2023-02-02T12:04:28;93773.19;;;7.73;62.05
23166;BME280;11751;42.700;24.170;2023-02-02T12:06:53;93770.06;;;7.77;61.35
23166;BME280;11751;42.700;24.170;2023-02-02T12:09:23;93763.59;;;7.82;61.49
23166;BME280;11751;42.700;24.170;2023-02-02T12:14:48;93765.66;;;7.89;62.09
23166;BME280;11751;42.700;24.170;2023-02-02T12:20:18;93760.09;;;7.89;60.65
23166;BME280;11751;42.700;24.170;2023-02-02T12:43:39;93707.34;;;8.76;60.08
23166;BME280;11751;42.700;24.170;2023-02-02T12:51:29;93694.69;;;8.75;59.54
23166;BME280;11751;42.700;24.170;2023-02-02T13:05:00;93687.53;;;8.52;62.48
23166;BME280;11751;42.700;24.170;2023-02-02T13:07:38;93682.28;;;8.34;62.66
23166;BME280;11751;42.700;24.170;2023-02-02T13:10:19;93675.78;;;8.39;61.58
23166;BME280;11751;42.700;24.170;2023-02-02T13:13:14;93675.94;;;8.26;61.66
23166;BME280;11751;42.700;24.170;2023-02-02T13:15:44;93673.75;;;8.39;60.54
23166;BME280;11751;42.700;24.170;2023-02-02T13:18:51;93683.06;;;8.42;60.78
23166;BME280;11751;42.700;24.170;2023-02-02T13:21:20;93683.09;;;8.49;60.65
23166;BME280;11751;42.700;24.170;2023-02-02T13:23:53;93683.31;;;8.66;60.56
23166;BME280;11751;42.700;24.170;2023-02-02T13:26:23;93670.09;;;8.59;59.52
23166;BME280;11751;42.700;24.170;2023-02-02T13:28:56;93686.84;;;8.66;59.27
23166;BME280;11751;42.700;24.170;2023-02-02T13:36:38;93699.56;;;8.25;56.85
23166;BME280;11751;42.700;24.170;2023-02-02T13:39:25;93713.50;;;8.25;53.91
23166;BME280;11751;42.700;24.170;2023-02-02T13:41:52;93711.09;;;8.01;55.74
23166;BME280;11751;42.700;24.170;2023-02-02T13:44:31;93728.91;;;7.90;57.52
23166;BME280;11751;42.700;24.170;2023-02-02T13:47:11;93708.63;;;7.90;59.41
23166;BME280;11751;42.700;24.170;2023-02-02T13:49:44;93715.16;;;7.64;62.11
23166;BME280;11751;42.700;24.170;2023-02-02T13:57:50;93723.84;;;7.33;65.77
23166;BME280;11751;42.700;24.170;2023-02-02T14:00:30;93726.50;;;6.98;66.62
23166;BME280;11751;42.700;24.170;2023-02-02T14:03:00;93726.63;;;6.92;66.61
23166;BME280;11751;42.700;24.170;2023-02-02T14:05:34;93734.53;;;6.68;68.19
23166;BME280;11751;42.700;24.170;2023-02-02T14:08:19;93733.94;;;6.29;71.11
23166;BME280;11751;42.700;24.170;2023-02-02T14:13:19;93744.00;;;5.67;75.00
23166;BME280;11751;42.700;24.170;2023-02-02T14:16:06;93729.03;;;5.44;72.56
23166;BME280;11751;42.700;24.170;2023-02-02T14:24:44;93742.44;;;5.14;77.64
23166;BME280;11751;42.700;24.170;2023-02-02T14:38:03;93748.19;;;5.04;77.91
23166;BME280;11751;42.700;24.170;2023-02-02T14:40:47;93744.28;;;4.81;78.23
23166;BME280;11751;42.700;24.170;2023-02-02T14:43:32;93745.44;;;4.54;78.55
23166;BME280;11751;42.700;24.170;2023-02-02T14:49:17;93746.66;;;4.40;79.59
23166;BME280;11751;42.700;24.170;2023-02-02T14:51:47;93765.91;;;4.32;80.55
23166;BME280;11751;42.700;24.170;2023-02-02T14:54:20;93745.78;;;4.32;78.79
23166;BME280;11751;42.700;24.170;2023-02-02T14:57:00;93723.28;;;4.17;78.33
23166;BME280;11751;42.700;24.170;2023-02-02T14:59:31;93741.19;;;4.16;78.35
23166;BME280;11751;42.700;24.170;2023-02-02T15:02:19;93775.50;;;4.13;78.04
23166;BME280;11751;42.700;24.170;2023-02-02T15:04:48;93786.59;;;4.13;77.09
23166;BME280;11751;42.700;24.170;2023-02-02T15:09:56;93811.81;;;4.28;79.28
23166;BME280;11751;42.700;24.170;2023-02-02T15:12:34;93823.72;;;4.23;81.03
23166;BME280;11751;42.700;24.170;2023-02-02T15:25:33;93841.72;;;2.81;96.68
23166;BME280;11751;42.700;24.170;2023-02-02T15:28:54;93837.94;;;2.84;97.28
23166;BME280;11751;42.700;24.170;2023-02-02T15:33:55;93820.13;;;2.79;99.64
23166;BME280;11751;42.700;24.170;2023-02-02T15:36:41;93825.63;;;2.85;100.00
23166;BME280;11751;42.700;24.170;2023-02-02T15:39:27;93833.34;;;2.92;98.69
23166;BME280;11751;42.700;24.170;2023-02-02T15:41:56;93832.53;;;3.02;92.27
23166;BME280;11751;42.700;24.170;2023-02-02T15:44:52;93844.91;;;2.96;89.15
23166;BME280;11751;42.700;24.170;2023-02-02T15:47:23;93857.47;;;2.97;89.47
23166;BME280;11751;42.700;24.170;2023-02-02T15:49:50;93846.94;;;2.90;88.80
23166;BME280;11751;42.700;24.170;2023-02-02T15:52:22;93862.66;;;3.06;91.06
23166;BME280;11751;42.700;24.170;2023-02-02T15:54:53;93853.88;;;3.02;89.79